createdAt,value
2023-04-21T00:00:07.790Z,0.00
2023-04-21T00:01:07.789Z,0.00
2023-04-21T00:02:07.811Z,0.00
2023-04-21T00:03:07.933Z,0.00
2023-04-21T00:04:07.869Z,0.00
2023-04-21T00:05:07.969Z,0.00
2023-04-21T00:06:07.705Z,0.00
2023-04-21T00:07:07.684Z,0.00
2023-04-21T00:08:07.716Z,0.00
2023-04-21T00:09:07.673Z,0.00
2023-04-21T00:10:07.691Z,0.00
2023-04-21T00:11:07.656Z,0.00
2023-04-21T00:12:07.630Z,0.00
2023-04-21T00:13:07.621Z,0.00
2023-04-21T00:14:07.662Z,0.00
2023-04-21T00:15:07.614Z,0.00
2023-04-21T00:16:07.671Z,0.00
2023-04-21T00:17:07.587Z,0.00
2023-04-21T00:18:07.683Z,0.00
2023-04-21T00:19:07.642Z,0.00
2023-04-21T00:20:07.531Z,0.00
2023-04-21T00:21:07.524Z,0.00
2023-04-21T00:22:07.514Z,0.00
2023-04-21T00:23:07.504Z,0.00
2023-04-21T00:24:07.517Z,0.00
2023-04-21T00:25:07.497Z,0.00
2023-04-21T00:26:07.480Z,0.00
2023-04-21T00:27:07.459Z,0.00
2023-04-21T00:28:07.448Z,0.00
2023-04-21T00:29:07.472Z,0.00
2023-04-21T00:30:07.444Z,0.00
2023-04-21T00:31:07.450Z,0.00
2023-04-21T00:32:08.884Z,0.00
2023-04-21T00:33:07.403Z,0.00
2023-04-21T00:34:07.395Z,0.00
2023-04-21T00:35:07.402Z,0.00
2023-04-21T00:36:07.355Z,0.00
2023-04-21T00:37:08.354Z,0.00
2023-04-21T00:38:07.351Z,0.00
2023-04-21T00:39:07.411Z,0.00
2023-04-21T00:40:07.308Z,0.00
2023-04-21T00:41:07.365Z,0.00
2023-04-21T00:42:07.299Z,0.00
2023-04-21T00:43:07.297Z,0.00
2023-04-21T00:44:07.275Z,0.00
2023-04-21T00:45:07.279Z,0.00
2023-04-21T00:46:07.401Z,0.00
2023-04-21T00:47:07.327Z,0.00
2023-04-21T00:48:07.262Z,0.00
2023-04-21T00:49:07.214Z,0.00
2023-04-21T00:50:07.227Z,0.00
2023-04-21T00:51:07.200Z,0.00
2023-04-21T00:52:07.427Z,0.00
2023-04-21T00:53:08.147Z,0.00
2023-04-21T00:54:07.169Z,0.00
2023-04-21T00:55:07.157Z,0.00
2023-04-21T00:56:07.168Z,0.00
2023-04-21T00:57:07.145Z,0.00
2023-04-21T00:58:07.119Z,0.00
2023-04-21T00:59:07.127Z,0.00
2023-04-21T01:00:07.098Z,0.00
2023-04-21T01:01:07.094Z,0.00
2023-04-21T01:02:07.215Z,0.00
2023-04-21T01:03:08.362Z,0.00
2023-04-21T01:04:07.214Z,0.00
2023-04-21T01:05:07.045Z,0.00
2023-04-21T01:06:07.041Z,0.00
2023-04-21T01:07:07.037Z,0.00
2023-04-21T01:08:07.876Z,0.00
2023-04-21T01:09:07.030Z,0.00
2023-04-21T01:10:06.999Z,0.00
2023-04-21T01:11:06.987Z,0.00
2023-04-21T01:12:07.009Z,0.00
2023-04-21T01:13:06.948Z,0.00
2023-04-21T01:14:06.975Z,0.00
2023-04-21T01:15:06.936Z,0.00
2023-04-21T01:16:06.942Z,0.00
2023-04-21T01:17:06.919Z,0.00
2023-04-21T01:18:06.945Z,0.00
2023-04-21T01:19:06.888Z,0.00
2023-04-21T01:20:06.904Z,0.00
2023-04-21T01:21:06.854Z,0.00
2023-04-21T01:22:06.863Z,0.00
2023-04-21T01:23:06.854Z,0.00
2023-04-21T01:24:06.841Z,0.00
2023-04-21T01:25:06.872Z,0.00
2023-04-21T01:26:06.812Z,0.00
2023-04-21T01:27:06.806Z,0.00
2023-04-21T01:28:06.786Z,0.00
2023-04-21T01:29:06.777Z,0.00
2023-04-21T01:30:06.783Z,0.00
2023-04-21T01:31:06.779Z,0.00
2023-04-21T01:32:06.800Z,0.00
2023-04-21T01:33:06.761Z,0.00
2023-04-21T01:34:06.733Z,0.00
2023-04-21T01:35:06.752Z,0.00
2023-04-21T01:36:06.730Z,0.00
2023-04-21T01:37:06.689Z,0.00
2023-04-21T01:38:06.695Z,0.00
2023-04-21T01:39:06.766Z,0.00
2023-04-21T01:40:06.665Z,0.00
2023-04-21T01:41:06.667Z,0.00
2023-04-21T01:42:06.636Z,0.00
2023-04-21T01:43:06.626Z,0.00
2023-04-21T01:44:08.156Z,0.00
2023-04-21T01:45:06.597Z,0.00
2023-04-21T01:46:07.442Z,0.00
2023-04-21T01:47:06.604Z,0.00
2023-04-21T01:48:06.726Z,0.00
2023-04-21T01:49:07.397Z,0.00
2023-04-21T01:50:08.058Z,0.00
2023-04-21T01:51:06.563Z,0.00
2023-04-21T01:52:06.546Z,0.00
2023-04-21T01:53:06.526Z,0.00
2023-04-21T01:54:06.498Z,0.00
2023-04-21T01:55:06.505Z,0.00
2023-04-21T01:56:06.527Z,0.00
2023-04-21T01:57:06.514Z,0.00
2023-04-21T01:58:06.462Z,0.00
2023-04-21T01:59:06.494Z,0.00
2023-04-21T02:00:06.467Z,0.00
2023-04-21T02:01:06.466Z,0.00
2023-04-21T02:02:06.496Z,0.00
2023-04-21T02:03:06.867Z,0.00
2023-04-21T02:04:06.508Z,0.00
2023-04-21T02:05:06.380Z,0.00
2023-04-21T02:06:06.400Z,0.00
2023-04-21T02:07:06.379Z,0.00
2023-04-21T02:08:06.340Z,0.00
2023-04-21T02:09:06.338Z,0.00
2023-04-21T02:10:06.381Z,0.00
2023-04-21T02:11:06.332Z,0.00
2023-04-21T02:12:06.301Z,0.00
2023-04-21T02:13:07.164Z,0.00
2023-04-21T02:14:06.276Z,0.00
2023-04-21T02:15:07.798Z,0.00
2023-04-21T02:16:13.232Z,0.00
2023-04-21T02:17:07.268Z,0.00
2023-04-21T02:18:06.601Z,0.00
2023-04-21T02:19:06.590Z,0.00
2023-04-21T02:20:06.241Z,0.00
2023-04-21T02:21:06.232Z,0.00
2023-04-21T02:22:06.181Z,0.00
2023-04-21T02:23:06.444Z,0.00
2023-04-21T02:24:06.730Z,0.00
2023-04-21T02:25:06.176Z,0.00
2023-04-21T02:26:06.162Z,0.00
2023-04-21T02:27:07.099Z,0.00
2023-04-21T02:28:06.111Z,0.00
2023-04-21T02:29:06.680Z,0.00
2023-04-21T02:30:07.572Z,0.00
2023-04-21T02:31:06.126Z,0.00
2023-04-21T02:33:06.106Z,0.00
2023-04-21T02:34:06.050Z,0.00
2023-04-21T02:35:06.097Z,0.00
2023-04-21T02:36:06.049Z,0.00
2023-04-21T02:37:06.024Z,0.00
2023-04-21T02:38:06.004Z,0.00
2023-04-21T02:39:05.999Z,0.00
2023-04-21T02:40:05.994Z,0.00
2023-04-21T02:41:06.029Z,0.00
2023-04-21T02:42:05.965Z,0.00
2023-04-21T02:43:05.952Z,0.00
2023-04-21T02:44:06.168Z,0.00
2023-04-21T02:45:06.864Z,0.00
2023-04-21T02:46:06.145Z,0.00
2023-04-21T02:47:06.904Z,0.00
2023-04-21T02:48:05.954Z,0.00
2023-04-21T02:49:07.349Z,0.00
2023-04-21T02:50:05.939Z,0.00
2023-04-21T02:51:05.864Z,0.00
2023-04-21T02:52:07.305Z,0.00
2023-04-21T02:53:05.875Z,0.00
2023-04-21T02:54:07.302Z,0.00
2023-04-21T02:55:05.954Z,0.00
2023-04-21T02:56:05.885Z,0.00
2023-04-21T02:57:05.801Z,0.00
2023-04-21T02:58:05.813Z,0.00
2023-04-21T02:59:05.784Z,0.00
2023-04-21T03:00:06.075Z,0.00
2023-04-21T03:01:05.835Z,0.00
2023-04-21T03:02:05.792Z,0.00
2023-04-21T03:03:06.868Z,0.00
2023-04-21T03:04:05.808Z,0.00
2023-04-21T03:05:06.107Z,0.00
2023-04-21T03:06:05.776Z,0.00
2023-04-21T03:07:05.747Z,0.00
2023-04-21T03:08:15.381Z,0.00
2023-04-21T03:09:05.679Z,0.00
2023-04-21T03:10:05.723Z,0.00
2023-04-21T03:11:05.747Z,0.00
2023-04-21T03:12:07.103Z,0.00
2023-04-21T03:13:05.630Z,0.00
2023-04-21T03:14:06.423Z,0.00
2023-04-21T03:15:07.763Z,0.00
2023-04-21T03:16:05.635Z,0.00
2023-04-21T03:17:05.611Z,0.00
2023-04-21T03:18:05.623Z,0.00
2023-04-21T03:19:05.770Z,0.00
2023-04-21T03:20:05.600Z,0.00
2023-04-21T03:21:05.541Z,0.00
2023-04-21T03:22:05.524Z,0.00
2023-04-21T03:23:06.473Z,0.00
2023-04-21T03:24:05.522Z,0.00
2023-04-21T03:25:06.363Z,0.00
2023-04-21T03:26:05.484Z,0.00
2023-04-21T03:27:05.582Z,0.00
2023-04-21T03:28:05.470Z,0.00
2023-04-21T03:29:05.451Z,0.00
2023-04-21T03:30:05.501Z,0.00
2023-04-21T03:31:05.476Z,0.00
2023-04-21T03:32:05.426Z,0.00
2023-04-21T03:33:05.441Z,0.00
2023-04-21T03:34:05.390Z,0.00
2023-04-21T03:35:05.383Z,0.00
2023-04-21T03:36:06.353Z,0.00
2023-04-21T03:37:05.394Z,0.00
2023-04-21T03:38:05.349Z,0.00
2023-04-21T03:39:13.147Z,0.00
2023-04-21T03:40:06.333Z,0.00
2023-04-21T03:41:05.328Z,0.00
2023-04-21T03:42:05.316Z,0.00
2023-04-21T03:43:05.325Z,0.00
2023-04-21T03:44:05.327Z,0.00
2023-04-21T03:45:05.276Z,0.00
2023-04-21T03:46:06.806Z,0.00
2023-04-21T03:47:05.281Z,0.00
2023-04-21T03:48:05.259Z,0.00
2023-04-21T03:49:05.236Z,0.00
2023-04-21T03:50:05.215Z,0.00
2023-04-21T03:51:05.207Z,0.00
2023-04-21T03:52:05.202Z,0.00
2023-04-21T03:53:05.200Z,0.00
2023-04-21T03:54:05.182Z,0.00
2023-04-21T03:55:05.178Z,0.00
2023-04-21T03:56:05.145Z,0.00
2023-04-21T03:57:05.144Z,0.00
2023-04-21T03:58:06.396Z,0.00
2023-04-21T03:59:05.138Z,0.00
2023-04-21T04:00:05.126Z,0.00
2023-04-21T04:01:05.111Z,4.00
2023-04-21T04:02:05.188Z,4.00
2023-04-21T04:03:06.289Z,0.00
2023-04-21T04:04:05.314Z,0.00
2023-04-21T04:05:05.136Z,4.00
2023-04-21T04:06:05.031Z,4.00
2023-04-21T04:07:05.091Z,0.00
2023-04-21T04:08:05.980Z,4.00
2023-04-21T04:09:05.115Z,4.00
2023-04-21T04:10:05.123Z,8.00
2023-04-21T04:11:04.999Z,4.00
2023-04-21T04:12:04.974Z,8.00
2023-04-21T04:13:06.465Z,8.00
2023-04-21T04:14:04.950Z,8.00
2023-04-21T04:15:04.937Z,12.00
2023-04-21T04:16:04.988Z,12.00
2023-04-21T04:17:05.917Z,12.00
2023-04-21T04:18:05.572Z,12.00
2023-04-21T04:19:04.909Z,16.00
2023-04-21T04:20:04.895Z,16.00
2023-04-21T04:21:04.883Z,20.00
2023-04-21T04:22:04.885Z,24.00
2023-04-21T04:23:04.906Z,28.00
2023-04-21T04:24:06.373Z,28.00
2023-04-21T04:25:04.842Z,32.00
2023-04-21T04:26:04.814Z,36.00
2023-04-21T04:27:04.891Z,40.00
2023-04-21T04:28:05.351Z,48.00
2023-04-21T04:29:04.789Z,52.00
2023-04-21T04:30:04.781Z,52.00
2023-04-21T04:31:05.412Z,60.00
2023-04-21T04:32:04.746Z,64.00
2023-04-21T04:33:04.764Z,68.00
2023-04-21T04:34:04.743Z,76.00
2023-04-21T04:35:04.745Z,88.00
2023-04-21T04:36:04.712Z,96.00
2023-04-21T04:37:04.717Z,96.00
2023-04-21T04:38:04.701Z,100.00
2023-04-21T04:39:04.678Z,104.00
2023-04-21T04:40:04.668Z,116.00
2023-04-21T04:41:04.653Z,128.00
2023-04-21T04:42:04.652Z,132.00
2023-04-21T04:43:05.383Z,144.00
2023-04-21T04:44:04.632Z,160.00
2023-04-21T04:45:05.583Z,188.00
2023-04-21T04:46:05.449Z,212.00
2023-04-21T04:47:04.720Z,224.00
2023-04-21T04:48:04.680Z,240.00
2023-04-21T04:49:04.570Z,260.00
2023-04-21T04:50:04.662Z,296.00
2023-04-21T04:51:04.536Z,352.00
2023-04-21T04:52:05.426Z,396.00
2023-04-21T04:53:04.532Z,396.00
2023-04-21T04:54:04.516Z,384.00
2023-04-21T04:55:05.573Z,360.00
2023-04-21T04:56:04.579Z,348.00
2023-04-21T04:57:04.479Z,332.00
2023-04-21T04:58:04.529Z,340.00
2023-04-21T04:59:04.464Z,348.00
2023-04-21T05:00:04.460Z,356.00
2023-04-21T05:01:04.423Z,360.00
2023-04-21T05:02:04.472Z,368.00
2023-04-21T05:03:04.583Z,376.00
2023-04-21T05:04:04.814Z,384.00
2023-04-21T05:05:05.551Z,400.00
2023-04-21T05:06:04.362Z,392.00
2023-04-21T05:07:04.369Z,392.00
2023-04-21T05:08:04.339Z,388.00
2023-04-21T05:09:04.351Z,392.00
2023-04-21T05:10:04.338Z,400.00
2023-04-21T05:11:04.537Z,428.00
2023-04-21T05:12:04.339Z,452.00
2023-04-21T05:13:04.315Z,468.00
2023-04-21T05:14:04.286Z,484.00
2023-04-21T05:15:04.278Z,492.00
2023-04-21T05:16:04.308Z,508.00
2023-04-21T05:17:04.346Z,528.00
2023-04-21T05:18:04.363Z,540.00
2023-04-21T05:19:04.254Z,556.00
2023-04-21T05:20:04.223Z,576.00
2023-04-21T05:21:04.220Z,604.00
2023-04-21T05:22:04.223Z,632.00
2023-04-21T05:23:04.246Z,672.00
2023-04-21T05:24:04.178Z,684.00
2023-04-21T05:25:04.177Z,680.00
2023-04-21T05:26:04.851Z,716.00
2023-04-21T05:27:04.150Z,780.00
2023-04-21T05:28:04.420Z,844.00
2023-04-21T05:29:04.124Z,964.00
2023-04-21T05:30:04.115Z,1084.00
2023-04-21T05:31:04.102Z,1180.00
2023-04-21T05:32:04.137Z,1236.00
2023-04-21T05:33:04.146Z,1240.00
2023-04-21T05:34:04.120Z,1228.00
2023-04-21T05:35:04.058Z,1252.00
2023-04-21T05:36:05.087Z,1324.00
2023-04-21T05:37:04.045Z,1336.00
2023-04-21T05:38:04.024Z,1356.00
2023-04-21T05:39:04.459Z,1288.00
2023-04-21T05:40:04.041Z,1300.00
2023-04-21T05:41:03.995Z,1348.00
2023-04-21T05:42:04.003Z,1404.00
2023-04-21T05:43:03.995Z,1400.00
2023-04-21T05:44:03.968Z,1364.00
2023-04-21T05:45:03.955Z,1356.00
2023-04-21T05:46:04.043Z,1420.00
2023-04-21T05:47:03.918Z,1464.00
2023-04-21T05:48:03.972Z,1500.00
2023-04-21T05:49:03.936Z,1544.00
2023-04-21T05:50:03.947Z,1616.00
2023-04-21T05:51:04.848Z,1708.00
2023-04-21T05:52:03.893Z,1700.00
2023-04-21T05:53:03.859Z,1640.00
2023-04-21T05:54:03.856Z,1540.00
2023-04-21T05:55:03.838Z,1464.00
2023-04-21T05:56:03.852Z,1448.00
2023-04-21T05:57:03.819Z,1452.00
2023-04-21T05:58:04.757Z,1480.00
2023-04-21T05:59:04.263Z,1524.00
2023-04-21T06:00:03.789Z,1536.00
2023-04-21T06:01:03.804Z,1520.00
2023-04-21T06:02:04.011Z,1520.00
2023-04-21T06:03:03.959Z,1504.00
2023-04-21T06:04:03.983Z,1452.00
2023-04-21T06:05:03.927Z,1396.00
2023-04-21T06:06:03.934Z,1332.00
2023-04-21T06:07:04.704Z,1316.00
2023-04-21T06:08:03.713Z,1308.00
2023-04-21T06:09:04.449Z,1268.00
2023-04-21T06:10:03.690Z,1292.00
2023-04-21T06:11:03.654Z,1316.00
2023-04-21T06:12:03.648Z,1344.00
2023-04-21T06:13:03.665Z,1372.00
2023-04-21T06:14:04.621Z,1388.00
2023-04-21T06:15:03.724Z,1464.00
2023-04-21T06:16:03.618Z,1532.00
2023-04-21T06:17:03.605Z,1536.00
2023-04-21T06:18:03.628Z,1512.00
2023-04-21T06:19:03.798Z,1464.00
2023-04-21T06:20:03.564Z,1464.00
2023-04-21T06:21:03.836Z,1504.00
2023-04-21T06:22:03.546Z,1568.00
2023-04-21T06:23:03.534Z,1552.00
2023-04-21T06:24:03.550Z,1548.00
2023-04-21T06:25:03.550Z,1520.00
2023-04-21T06:26:03.492Z,1568.00
2023-04-21T06:27:03.475Z,1548.00
2023-04-21T06:28:03.505Z,1508.00
2023-04-21T06:29:03.456Z,1500.00
2023-04-21T06:30:03.457Z,1548.00
2023-04-21T06:31:04.803Z,1704.00
2023-04-21T06:32:03.608Z,1820.00
2023-04-21T06:33:03.493Z,1756.00
2023-04-21T06:34:03.413Z,1692.00
2023-04-21T06:35:03.387Z,1748.00
2023-04-21T06:36:03.427Z,1792.00
2023-04-21T06:37:03.373Z,1872.00
2023-04-21T06:38:03.365Z,1800.00
2023-04-21T06:39:03.346Z,1732.00
2023-04-21T06:40:03.341Z,1752.00
2023-04-21T06:41:03.365Z,1836.00
2023-04-21T06:42:03.321Z,1924.00
2023-04-21T06:43:04.481Z,1892.00
2023-04-21T06:44:03.290Z,1808.00
2023-04-21T06:45:03.284Z,1716.00
2023-04-21T06:46:03.736Z,1788.00
2023-04-21T06:47:03.314Z,1904.00
2023-04-21T06:48:04.157Z,1924.00
2023-04-21T06:49:03.243Z,2032.00
2023-04-21T06:50:03.229Z,2112.00
2023-04-21T06:51:03.248Z,2268.00
2023-04-21T06:52:03.200Z,2168.00
2023-04-21T06:53:03.204Z,2104.00
2023-04-21T06:54:03.185Z,2236.00
2023-04-21T06:55:03.208Z,2336.00
2023-04-21T06:56:03.161Z,2292.00
2023-04-21T06:57:03.149Z,2260.00
2023-04-21T06:58:03.158Z,2140.00
2023-04-21T06:59:03.151Z,2068.00
2023-04-21T07:00:03.155Z,2240.00
2023-04-21T07:01:03.131Z,2312.00
2023-04-21T07:02:03.198Z,2364.00
2023-04-21T07:03:03.183Z,2268.00
2023-04-21T07:04:03.177Z,2208.00
2023-04-21T07:05:03.079Z,2188.00
2023-04-21T07:06:04.017Z,2108.00
2023-04-21T07:07:03.545Z,2092.00
2023-04-21T07:08:03.101Z,2292.00
2023-04-21T07:09:03.032Z,2492.00
2023-04-21T07:10:03.017Z,2624.00
2023-04-21T07:11:02.988Z,2616.00
2023-04-21T07:12:03.040Z,2500.00
2023-04-21T07:13:02.969Z,2488.00
2023-04-21T07:14:02.981Z,2596.00
2023-04-21T07:15:02.961Z,2708.00
2023-04-21T07:16:03.911Z,2592.00
2023-04-21T07:17:03.068Z,2484.00
2023-04-21T07:18:02.925Z,2484.00
2023-04-21T07:19:04.424Z,2616.00
2023-04-21T07:20:02.917Z,2704.00
2023-04-21T07:21:02.884Z,2780.00
2023-04-21T07:22:02.952Z,2856.00
2023-04-21T07:23:02.874Z,2920.00
2023-04-21T07:24:02.856Z,2872.00
2023-04-21T07:25:03.816Z,2972.00
2023-04-21T07:26:03.264Z,2908.00
2023-04-21T07:27:02.825Z,2772.00
2023-04-21T07:28:02.834Z,2696.00
2023-04-21T07:29:02.850Z,2576.00
2023-04-21T07:30:02.814Z,2544.00
2023-04-21T07:31:03.796Z,2636.00
2023-04-21T07:32:02.791Z,2700.00
2023-04-21T07:33:02.819Z,2812.00
2023-04-21T07:34:02.761Z,2840.00
2023-04-21T07:35:02.751Z,2812.00
2023-04-21T07:36:02.744Z,2748.00
2023-04-21T07:37:03.499Z,2720.00
2023-04-21T07:38:02.715Z,2716.00
2023-04-21T07:39:02.686Z,2704.00
2023-04-21T07:40:02.713Z,2780.00
2023-04-21T07:41:02.673Z,2880.00
2023-04-21T07:42:03.045Z,2952.00
2023-04-21T07:43:02.675Z,2944.00
2023-04-21T07:44:02.666Z,3120.00
2023-04-21T07:45:02.658Z,3240.00
2023-04-21T07:46:02.636Z,3144.00
2023-04-21T07:47:02.612Z,3036.00
2023-04-21T07:48:03.239Z,3072.00
2023-04-21T07:49:04.045Z,3168.00
2023-04-21T07:50:04.025Z,3240.00
2023-04-21T07:51:02.808Z,3176.00
2023-04-21T07:52:02.540Z,3172.00
2023-04-21T07:53:02.532Z,3336.00
2023-04-21T07:54:02.541Z,3384.00
2023-04-21T07:55:04.565Z,3360.00
2023-04-21T07:56:02.775Z,3460.00
2023-04-21T07:57:02.517Z,3564.00
2023-04-21T07:58:02.503Z,3564.00
2023-04-21T07:59:02.502Z,3504.00
2023-04-21T08:00:02.447Z,3500.00
2023-04-21T08:01:02.455Z,3488.00
2023-04-21T08:02:02.647Z,3476.00
2023-04-21T08:03:02.523Z,3500.00
2023-04-21T08:04:03.467Z,3576.00
2023-04-21T08:05:02.452Z,3580.00
2023-04-21T08:06:03.358Z,3620.00
2023-04-21T08:07:02.919Z,3588.00
2023-04-21T08:08:02.381Z,3664.00
2023-04-21T08:09:02.456Z,3756.00
2023-04-21T08:10:02.433Z,3772.00
2023-04-21T08:11:02.360Z,3684.00
2023-04-21T08:12:02.685Z,3772.00
2023-04-21T08:13:02.306Z,3896.00
2023-04-21T08:14:02.314Z,3844.00
2023-04-21T08:15:02.516Z,3776.00
2023-04-21T08:16:02.655Z,3700.00
2023-04-21T08:17:02.331Z,3320.00
2023-04-21T08:18:02.354Z,3324.00
2023-04-21T08:19:02.603Z,3844.00
2023-04-21T08:20:03.702Z,3808.00
2023-04-21T08:21:02.252Z,3740.00
2023-04-21T08:22:02.296Z,3416.00
2023-04-21T08:23:02.285Z,3156.00
2023-04-21T08:24:02.227Z,3572.00
2023-04-21T08:25:02.161Z,3712.00
2023-04-21T08:26:03.158Z,3312.00
2023-04-21T08:27:02.218Z,3116.00
2023-04-21T08:28:02.167Z,3796.00
2023-04-21T08:29:04.404Z,4188.00
2023-04-21T08:30:02.150Z,3844.00
2023-04-21T08:31:03.221Z,3776.00
2023-04-21T08:32:02.199Z,3976.00
2023-04-21T08:33:02.128Z,4696.00
2023-04-21T08:34:02.973Z,4312.00
2023-04-21T08:35:02.697Z,3948.00
2023-04-21T08:36:09.860Z,3876.00
2023-04-21T08:37:03.043Z,4268.00
2023-04-21T08:38:02.058Z,4864.00
2023-04-21T08:39:02.060Z,5336.00
2023-04-21T08:40:02.927Z,5028.00
2023-04-21T08:41:02.002Z,4460.00
2023-04-21T08:42:02.000Z,4632.00
2023-04-21T08:43:01.986Z,4984.00
2023-04-21T08:44:01.993Z,5560.00
2023-04-21T08:45:01.968Z,5124.00
2023-04-21T08:46:01.978Z,4924.00
2023-04-21T08:47:01.932Z,4844.00
2023-04-21T08:48:02.962Z,5156.00
2023-04-21T08:49:02.091Z,4960.00
2023-04-21T08:50:03.378Z,4708.00
2023-04-21T08:51:01.916Z,4476.00
2023-04-21T08:52:01.891Z,4208.00
2023-04-21T08:53:01.881Z,4092.00
2023-04-21T08:54:01.854Z,3988.00
2023-04-21T08:55:01.878Z,3660.00
2023-04-21T08:56:10.625Z,3600.00
2023-04-21T08:57:14.175Z,3964.00
2023-04-21T08:58:02.811Z,3848.00
2023-04-21T08:59:01.790Z,3828.00
2023-04-21T09:00:03.933Z,4060.00
2023-04-21T09:01:01.835Z,4124.00
2023-04-21T09:02:01.955Z,4424.00
2023-04-21T09:03:02.640Z,4944.00
2023-04-21T09:04:01.906Z,5744.00
2023-04-21T09:05:01.983Z,5896.00
2023-04-21T09:06:01.920Z,5672.00
2023-04-21T09:07:02.686Z,5348.00
2023-04-21T09:08:01.744Z,4524.00
2023-04-21T09:09:01.712Z,4124.00
2023-04-21T09:10:01.803Z,3772.00
2023-04-21T09:11:01.794Z,3876.00
2023-04-21T09:12:01.666Z,3824.00
2023-04-21T09:13:01.633Z,4024.00
2023-04-21T09:14:01.705Z,4752.00
2023-04-21T09:15:01.623Z,5212.00
2023-04-21T09:16:01.628Z,5368.00
2023-04-21T09:17:01.684Z,5132.00
2023-04-21T09:18:01.640Z,5388.00
2023-04-21T09:19:01.615Z,5284.00
2023-04-21T09:20:01.590Z,4440.00
2023-04-21T09:21:01.563Z,3852.00
2023-04-21T09:22:01.539Z,4120.00
2023-04-21T09:23:01.546Z,4796.00
2023-04-21T09:24:01.535Z,5216.00
2023-04-21T09:25:01.541Z,5148.00
2023-04-21T09:26:01.552Z,4916.00
2023-04-21T09:27:01.477Z,4904.00
2023-04-21T09:28:01.473Z,5140.00
2023-04-21T09:29:01.542Z,5412.00
2023-04-21T09:30:01.508Z,5520.00
2023-04-21T09:31:01.462Z,5520.00
2023-04-21T09:32:01.474Z,5352.00
2023-04-21T09:33:01.490Z,5632.00
2023-04-21T09:34:01.801Z,5952.00
2023-04-21T09:35:01.408Z,6076.00
2023-04-21T09:36:01.709Z,6384.00
2023-04-21T09:37:01.367Z,6316.00
2023-04-21T09:38:01.362Z,6624.00
2023-04-21T09:40:05.017Z,5860.00
2023-04-21T09:41:01.328Z,5652.00
2023-04-21T09:42:01.368Z,5300.00
2023-04-21T09:43:01.341Z,5360.00
2023-04-21T09:44:01.351Z,5216.00
2023-04-21T09:45:23.689Z,5000.00
2023-04-21T09:46:02.367Z,4876.00
2023-04-21T09:47:01.289Z,4876.00
2023-04-21T09:48:01.803Z,5020.00
2023-04-21T09:49:01.248Z,5172.00
2023-04-21T09:50:02.735Z,5296.00
2023-04-21T09:51:25.461Z,5316.00
2023-04-21T09:53:01.774Z,5720.00
2023-04-21T09:54:01.243Z,5724.00
2023-04-21T09:55:01.179Z,5532.00
2023-04-21T09:56:01.151Z,5396.00
2023-04-21T09:57:01.167Z,4408.00
2023-04-21T09:58:01.128Z,4876.00
2023-04-21T09:59:01.151Z,6044.00
2023-04-21T10:00:01.325Z,5872.00
2023-04-21T10:01:01.105Z,5788.00
2023-04-21T10:02:01.574Z,5528.00
2023-04-21T10:03:01.200Z,5144.00
2023-04-21T10:04:01.327Z,5208.00
2023-04-21T10:05:01.351Z,5276.00
2023-04-21T10:06:01.094Z,5452.00
2023-04-21T10:07:01.087Z,5540.00
2023-04-21T10:08:01.047Z,5952.00
2023-04-21T10:09:01.037Z,6032.00
2023-04-21T10:10:01.113Z,6168.00
2023-04-21T10:11:01.086Z,6172.00
2023-04-21T10:12:00.982Z,5852.00
2023-04-21T10:13:00.995Z,6036.00
2023-04-21T10:14:00.952Z,5988.00
2023-04-21T10:15:00.965Z,5880.00
2023-04-21T10:16:01.111Z,5828.00
2023-04-21T10:17:00.926Z,5824.00
2023-04-21T10:18:00.986Z,5744.00
2023-04-21T10:19:02.410Z,5752.00
2023-04-21T10:20:00.889Z,5860.00
2023-04-21T10:21:00.881Z,6124.00
2023-04-21T10:22:00.895Z,5920.00
2023-04-21T10:23:00.859Z,6324.00
2023-04-21T10:24:02.347Z,6336.00
2023-04-21T10:25:00.849Z,6540.00
2023-04-21T10:26:00.820Z,7296.00
2023-04-21T10:27:00.835Z,7364.00
2023-04-21T10:28:00.802Z,7312.00
2023-04-21T10:29:00.793Z,7448.00
2023-04-21T10:30:00.781Z,7292.00
2023-04-21T10:31:00.830Z,7388.00
2023-04-21T10:32:00.895Z,7196.00
2023-04-21T10:33:01.665Z,6920.00
2023-04-21T10:34:02.689Z,7096.00
2023-04-21T10:35:00.734Z,7340.00
2023-04-21T10:36:00.882Z,7064.00
2023-04-21T10:37:01.666Z,6688.00
2023-04-21T10:38:02.159Z,6840.00
2023-04-21T10:39:00.745Z,6796.00
2023-04-21T10:40:02.136Z,6928.00
2023-04-21T10:41:02.117Z,7244.00
2023-04-21T10:42:00.661Z,7516.00
2023-04-21T10:43:01.604Z,7624.00
2023-04-21T10:44:01.689Z,6820.00
2023-04-21T10:45:01.611Z,5836.00
2023-04-21T10:46:00.626Z,4572.00
2023-04-21T10:47:01.465Z,4556.00
2023-04-21T10:48:00.906Z,3732.00
2023-04-21T10:49:01.536Z,3584.00
2023-04-21T10:50:01.511Z,4088.00
2023-04-21T10:51:00.614Z,5196.00
2023-04-21T10:52:01.422Z,5340.00
2023-04-21T10:53:00.539Z,5496.00
2023-04-21T10:54:00.797Z,5168.00
2023-04-21T10:55:02.007Z,7788.00
2023-04-21T10:56:01.952Z,7836.00
2023-04-21T10:57:01.939Z,7520.00
2023-04-21T10:58:00.553Z,8552.00
2023-04-21T10:59:01.930Z,7424.00
2023-04-21T11:00:00.455Z,7456.00
2023-04-21T11:01:01.988Z,6704.00
2023-04-21T11:02:01.293Z,8800.00
2023-04-21T11:03:01.075Z,9016.00
2023-04-21T11:04:02.019Z,7456.00
2023-04-21T11:05:00.769Z,6804.00
2023-04-21T11:06:00.391Z,7116.00
2023-04-21T11:07:00.601Z,6236.00
2023-04-21T11:08:00.368Z,5580.00
2023-04-21T11:09:00.393Z,5852.00
2023-04-21T11:10:00.482Z,6508.00
2023-04-21T11:11:00.397Z,8968.00
2023-04-21T11:12:00.409Z,5772.00
2023-04-21T11:13:00.308Z,5388.00
2023-04-21T11:14:00.375Z,5408.00
2023-04-21T11:15:00.300Z,5800.00
2023-04-21T11:16:00.295Z,6424.00
2023-04-21T11:17:00.436Z,6608.00
2023-04-21T11:18:00.283Z,7016.00
2023-04-21T11:19:00.236Z,5508.00
2023-04-21T11:20:00.563Z,4364.00
2023-04-21T11:21:00.321Z,4252.00
2023-04-21T11:22:00.290Z,4088.00
2023-04-21T11:23:00.203Z,4760.00
2023-04-21T11:24:00.179Z,6368.00
2023-04-21T11:25:00.228Z,7624.00
2023-04-21T11:26:00.178Z,7436.00
2023-04-21T11:27:00.227Z,7012.00
2023-04-21T11:28:00.275Z,6816.00
2023-04-21T11:29:00.154Z,7360.00
2023-04-21T11:30:00.333Z,7964.00
2023-04-21T11:31:00.165Z,8712.00
2023-04-21T11:32:01.094Z,8320.00
2023-04-21T11:33:00.138Z,8088.00
2023-04-21T11:34:00.111Z,8224.00
2023-04-21T11:35:00.114Z,8328.00
2023-04-21T11:36:00.830Z,8220.00
2023-04-21T11:37:00.064Z,8444.00
2023-04-21T11:38:00.084Z,8388.00
2023-04-21T11:39:00.025Z,8404.00
2023-04-21T11:40:00.093Z,8704.00
2023-04-21T11:40:59.995Z,9036.00
2023-04-21T11:42:00.169Z,9236.00
2023-04-21T11:42:59.978Z,9212.00
2023-04-21T11:43:59.990Z,9228.00
2023-04-21T11:44:59.950Z,9436.00
2023-04-21T11:45:59.995Z,9744.00
2023-04-21T11:46:59.939Z,10236.00
2023-04-21T11:47:59.946Z,10960.00
2023-04-21T11:49:00.751Z,12504.00
2023-04-21T11:49:59.905Z,12944.00
2023-04-21T11:50:59.902Z,12724.00
2023-04-21T11:51:59.880Z,12320.00
2023-04-21T11:52:59.902Z,12716.00
2023-04-21T11:53:59.863Z,11124.00
2023-04-21T11:55:00.739Z,10912.00
2023-04-21T11:55:59.825Z,10028.00
2023-04-21T11:57:01.981Z,9432.00
2023-04-21T11:57:59.940Z,9788.00
2023-04-21T11:58:59.838Z,8276.00
2023-04-21T12:00:00.628Z,7876.00
2023-04-21T12:00:59.954Z,8088.00
2023-04-21T12:02:00.881Z,7756.00
2023-04-21T12:03:00.007Z,9616.00
2023-04-21T12:03:59.930Z,11464.00
2023-04-21T12:04:59.895Z,10548.00
2023-04-21T12:06:00.720Z,10516.00
2023-04-21T12:06:59.786Z,8112.00
2023-04-21T12:07:59.716Z,8808.00
2023-04-21T12:08:59.696Z,7848.00
2023-04-21T12:09:59.732Z,9104.00
2023-04-21T12:10:59.677Z,10692.00
2023-04-21T12:12:00.621Z,11576.00
2023-04-21T12:12:59.658Z,12376.00
2023-04-21T12:13:59.944Z,12584.00
2023-04-21T12:14:59.824Z,12344.00
2023-04-21T12:15:59.807Z,14124.00
2023-04-21T12:16:59.596Z,11500.00
2023-04-21T12:17:59.616Z,12484.00
2023-04-21T12:18:59.572Z,12060.00
2023-04-21T12:20:01.021Z,12112.00
2023-04-21T12:20:59.636Z,12244.00
2023-04-21T12:21:59.534Z,13024.00
2023-04-21T12:23:00.042Z,13324.00
2023-04-21T12:23:59.516Z,13640.00
2023-04-21T12:25:00.361Z,13020.00
2023-04-21T12:26:00.355Z,14268.00
2023-04-21T12:26:59.520Z,13984.00
2023-04-21T12:28:00.350Z,12976.00
2023-04-21T12:28:59.499Z,14292.00
2023-04-21T12:29:59.461Z,13736.00
2023-04-21T12:30:59.443Z,15792.00
2023-04-21T12:31:59.634Z,16140.00
2023-04-21T12:32:59.546Z,16532.00